Flight Track Log - Related Links

Times and Time Zones

All times are in EDT time to prevent confusion due to time zone crossing. See the N21EK flight status page for this flight to view local times or setup timezone preferences in your user account.

Time Position Orientation Groundspeed Altitude Reporting Facility
EDT Latitude Longitude Course Direction KTS MPH feet Rate Location/Type
Fri 10:12:52 AM 26.4744 -80.1153 299° West 189 217 6,200  Level Miami Center
Fri 10:13:52 AM 26.5069 -80.1508 316° Northwest 189 217 8,200 1,900 Climbing Miami Center
Fri 10:14:52 AM 26.5328 -80.2075 297° West 202 232 10,000 900 Climbing Miami Center
Fri 10:15:52 AM 26.5561 -80.2894 288° West 236 272 10,000 500 Level Miami Center
Fri 10:16:52 AM 26.5772 -80.3619 288° West 271 312 11,000 650 Climbing Miami Center
Fri 10:17:00 AM 26.5940 -80.4047 299° West  Level FlightAware Approximate
Fri 10:17:52 AM 26.6189 -80.4514 298° West 282 325 11,300  Level Miami Center
Fri 10:18:00 AM 26.6174 -80.4681 299° West  Level FlightAware Approximate
Fri 10:18:52 AM 26.6508 -80.5175 298° West 282 325 12,900  Level Miami Center
Fri 10:19:52 AM 26.6842 -80.5975 295° West 269 310 14,000 550 Climbing Miami Center
Fri 10:20:52 AM 26.7178 -80.6708 297° West 275 316 14,000  Level Miami Center
Fri 10:21:52 AM 26.7553 -80.7556 296° West 294 338 14,000  Level Miami Center
Fri 10:22:52 AM 26.7947 -80.8408 297° West 304 350 14,000  Level Miami Center
Fri 10:23:52 AM 26.8358 -80.9331 297° West 304 350 14,000  Level Miami Center
Fri 10:24:52 AM 26.8733 -81.0181 296° West 304 350 14,000  Level Miami Center
Fri 10:25:52 AM 26.9103 -81.1033 296° West 304 350 14,000  Level Miami Center
Fri 10:26:52 AM 26.9436 -81.1789 296° West 304 350 14,000  Level Miami Center
Fri 10:27:52 AM 26.9808 -81.2664 296° West 304 350 14,000 50 Level Miami Center
Fri 10:28:52 AM 27.0236 -81.3636 296° West 304 350 14,100  Climbing Miami Center
Fri 10:29:52 AM 27.0567 -81.4419 295° West 304 350 14,000 -200 Descending Miami Center
Fri 10:30:52 AM 27.0933 -81.5319 295° West 304 350 13,700 -950 Descending Miami Center
Fri 10:31:52 AM 27.1344 -81.6200 298° West 309 356 12,100 -1,850 Descending Miami Center
Fri 10:32:52 AM 27.1692 -81.7031 295° West 309 356 10,000 -1,900 Descending Miami Center
Fri 10:33:52 AM 27.2003 -81.7767 295° West 287 330 8,300 -1,400 Descending Miami Center
Fri 10:34:52 AM 27.2311 -81.8458 297° West 266 306 7,200 -1,050 Descending Miami Center
Fri 10:35:52 AM 27.2558 -81.9169 291° West 253 291 6,200 -1,050 Descending Miami Center
Fri 10:36:52 AM 27.2700 -81.9875 283° West 243 280 5,100 -600 Descending Miami Center
Fri 10:37:52 AM 27.2844 -82.0558 283° West 232 267 5,000 -50 Descending Miami Center
Fri 10:38:52 AM 27.3006 -82.1267 284° West 232 267 5,000  Level Miami Center
Fri 10:39:52 AM 27.3186 -82.2022 285° West 243 280 5,000 -350 Level Miami Center
Fri 10:40:52 AM 27.3433 -82.2689 293° West 243 280 4,300 -1,000 Descending Miami Center
Fri 10:41:52 AM 27.3744 -82.3264 301° West 230 265 3,000 -650 Descending Miami Center
Fri 10:42:52 AM 27.4039 -82.3769 303° West 213 245 3,000 56 Level Miami Center
Fri 10:43:39 AM 27.4333 -82.4167 310° West 192 221 3,100 -505 Climbing Tampa TRACON
Fri 10:44:39 AM 27.4500 -82.4833 286° West 205 236 2,100 -750 Descending Tampa TRACON
Fri 10:45:39 AM 27.4667 -82.5333 291° West 181 208 1,600 -632 Descending Tampa TRACON
Fri 10:46:33 AM 27.4500 -82.5833 249° West 156 180 900 -600 Descending Tampa TRACON
Fri 10:47:39 AM 27.4167 -82.5833 180° South 91 105 400 -455 Descending Tampa TRACON
Fri 10:49:00 AM 27.3954 -82.5544 138° Southeast  Level Estimated
Fri 10:56:00 AM 27.3954 -82.5544 138° Southeast  Level Estimated
Fri 10:57:00 AM 27.3954 -82.5544 138° Southeast  Level Estimated

Login

Don't have an account? Register now (free) for customized features, flight alerts, and more!